Time;durP1;ratioP1;P1;durP2;ratioP2;P2;SDS_P1;SDS_P2;PMS_P1;PMS_P2;Temp;Humidity;BMP_temperature;BMP_pressure;BME280_temperature;BME280_humidity;BME280_pressure;Samples;Min_cycle;Max_cycle;Signal;HPM_P1;HPM_P2
2021/04/27 00:00:41;;;;;;;6.82;3.83;;;;;;;21.80;29.58;101424.66;5032994;28;20033;-78
2021/04/27 00:03:07;;;;;;;7.57;5.30;;;;;;;21.86;29.61;101414.81;5031821;28;20068;-78
2021/04/27 00:05:33;;;;;;;6.13;3.50;;;;;;;21.94;29.28;101412.94;5032902;28;20074;-79
2021/04/27 00:07:58;;;;;;;5.60;2.33;;;;;;;21.65;29.84;101418.06;5033023;28;20495;-79
2021/04/27 00:10:24;;;;;;;5.90;1.70;;;;;;;21.70;29.90;101428.06;5032996;28;20097;-79
2021/04/27 00:12:50;;;;;;;7.63;1.65;;;;;;;21.55;30.01;101427.81;5032744;28;20030;-76
2021/04/27 00:15:18;;;;;;;5.43;1.90;;;;;;;21.71;29.88;101426.88;5032885;28;20082;-80
2021/04/27 00:17:44;;;;;;;3.60;1.70;;;;;;;21.50;30.43;101421.75;5032813;28;20155;-79
2021/04/27 00:20:11;;;;;;;3.67;1.40;;;;;;;21.45;30.30;101419.28;5031612;28;20116;-79
2021/04/27 00:22:37;;;;;;;5.43;1.67;;;;;;;21.52;30.51;101411.06;5032761;28;20041;-76
2021/04/27 00:25:04;;;;;;;7.38;1.40;;;;;;;21.65;30.34;101406.13;5032790;28;20030;-79
2021/04/27 00:27:31;;;;;;;3.97;1.65;;;;;;;21.55;30.58;101400.03;5032717;28;20032;-79
2021/04/27 00:29:57;;;;;;;4.60;1.98;;;;;;;21.65;30.54;101401.38;5032766;28;20021;-79
2021/04/27 00:32:23;;;;;;;3.35;1.40;;;;;;;21.71;30.76;101410.19;5032611;28;20041;-81
2021/04/27 00:34:48;;;;;;;3.15;1.40;;;;;;;21.74;30.55;101401.91;5032494;28;20029;-79
2021/04/27 00:37:14;;;;;;;4.70;1.77;;;;;;;21.71;30.64;101401.84;5039289;28;20026;-76
2021/04/27 00:39:40;;;;;;;6.30;1.80;;;;;;;21.69;30.79;101398.63;5039287;28;20033;-80
2021/04/27 00:42:05;;;;;;;3.72;1.88;;;;;;;21.71;31.07;101399.06;5039174;28;20036;-79
2021/04/27 00:44:31;;;;;;;3.65;1.98;;;;;;;21.65;31.08;101392.22;5039023;28;20033;-79
2021/04/27 00:46:56;;;;;;;7.57;2.35;;;;;;;21.41;31.65;101387.84;5038931;28;20053;-85
2021/04/27 00:49:22;;;;;;;7.28;2.50;;;;;;;21.52;31.69;101384.06;5039059;28;20049;-86
2021/04/27 00:51:48;;;;;;;6.55;2.13;;;;;;;21.57;31.58;101374.63;5037891;28;20060;-79
2021/04/27 00:54:14;;;;;;;11.30;3.25;;;;;;;21.53;31.72;101382.09;5054405;28;20373;-79
2021/04/27 00:56:40;;;;;;;7.18;2.40;;;;;;;21.57;31.60;101380.97;5039114;28;20032;-79
2021/04/27 00:59:05;;;;;;;12.85;3.28;;;;;;;21.47;32.00;101378.03;5039302;28;20108;-85
2021/04/27 01:01:31;;;;;;;5.18;2.33;;;;;;;21.58;31.79;101373.44;5039037;28;20450;-79
2021/04/27 01:03:57;;;;;;;9.40;3.42;;;;;;;21.56;32.10;101368.25;5038899;28;20025;-79
2021/04/27 01:06:22;;;;;;;4.22;2.45;;;;;;;21.51;32.12;101367.75;5038924;28;20036;-79
2021/04/27 01:08:50;;;;;;;8.55;3.00;;;;;;;21.53;32.13;101365.41;5038937;28;20468;-80
2021/04/27 01:11:33;;;;;;;4.70;2.38;;;;;;;21.47;32.46;101359.38;5038923;28;20053;-76
2021/04/27 01:14:18;;;;;;;6.95;3.20;;;;;;;21.41;32.61;101352.53;5036232;28;20037;-79
2021/04/27 01:16:49;;;;;;;5.85;3.25;;;;;;;21.16;33.05;101352.06;5038866;28;20057;-79
2021/04/27 01:19:17;;;;;;;8.95;2.80;;;;;;;21.13;33.32;101352.00;5037703;28;20021;-78
2021/04/27 01:21:43;;;;;;;5.13;2.50;;;;;;;;;;5021174;28;20498;-79
2021/04/27 01:24:22;;;;;;;7.15;3.13;;;;;;;21.38;32.71;101342.13;5038811;28;20104;-79
2021/04/27 01:26:51;;;;;;;6.68;2.92;;;;;;;21.30;32.85;101340.41;5038814;28;20116;-83
2021/04/27 01:29:21;;;;;;;7.80;2.92;;;;;;;21.32;32.80;101332.50;5036886;28;20052;-79
2021/04/27 01:31:47;;;;;;;4.45;2.47;;;;;;;21.16;33.04;101323.44;5036533;28;20029;-79
2021/04/27 01:34:17;;;;;;;5.60;3.13;;;;;;;21.22;33.13;101313.63;5038491;28;20459;-79
2021/04/27 01:36:43;;;;;;;9.35;3.13;;;;;;;21.17;33.19;101313.97;5038698;28;20025;-84
2021/04/27 01:39:09;;;;;;;9.68;3.17;;;;;;;21.05;33.30;101307.41;5037798;28;20075;-79
2021/04/27 01:41:36;;;;;;;7.28;3.05;;;;;;;21.00;33.46;101304.13;5038097;28;20021;-77
2021/04/27 01:44:04;;;;;;;8.63;3.08;;;;;;;21.08;33.20;101302.28;5038388;28;20029;-79
2021/04/27 01:46:30;;;;;;;10.55;3.72;;;;;;;21.18;33.12;101302.47;5036925;28;20044;-76
2021/04/27 01:48:56;;;;;;;6.72;2.67;;;;;;;21.19;33.21;101304.06;5035591;28;20399;-85
2021/04/27 01:51:22;;;;;;;4.75;2.97;;;;;;;20.70;33.90;101290.91;5035439;28;20022;-77
2021/04/27 01:53:51;;;;;;;10.32;3.50;;;;;;;20.87;33.71;101295.19;5035333;28;20044;-76
2021/04/27 01:56:17;;;;;;;7.50;3.00;;;;;;;20.98;33.46;101295.38;5035443;28;20040;-79
2021/04/27 01:58:42;;;;;;;15.68;3.28;;;;;;;20.95;33.41;101298.91;5035459;28;20025;-79
2021/04/27 02:01:08;;;;;;;7.55;3.42;;;;;;;20.93;33.58;101293.72;5035326;28;20033;-79
2021/04/27 02:03:43;;;;;;;10.73;2.80;;;;;;;20.98;33.50;101289.81;5035239;28;20104;-85
2021/04/27 02:06:10;;;;;;;7.07;3.10;;;;;;;20.81;34.09;101279.19;5035218;28;20029;-77
2021/04/27 02:08:37;;;;;;;7.32;2.63;;;;;;;20.92;33.58;101274.63;5035143;28;20451;-84
2021/04/27 02:11:04;;;;;;;6.82;2.42;;;;;;;20.91;33.60;101271.03;5033724;28;20033;-79
2021/04/27 02:13:30;;;;;;;8.23;3.20;;;;;;;21.00;33.42;101268.81;5034956;28;20601;-79
2021/04/27 02:15:56;;;;;;;4.80;2.80;;;;;;;20.94;33.60;101266.75;5034856;28;20076;-80
2021/04/27 02:18:33;;;;;;;5.70;2.83;;;;;;;20.92;33.73;101267.09;5035010;28;20032;-79
2021/04/27 02:21:00;;;;;;;8.77;3.40;;;;;;;20.89;33.58;101253.97;5034935;28;20029;-78
2021/04/27 02:23:29;;;;;;;7.38;3.13;;;;;;;20.83;33.78;101261.00;5034813;28;20480;-76
2021/04/27 02:25:57;;;;;;;6.47;3.55;;;;;;;20.75;33.86;101259.25;5034900;28;20040;-79
2021/04/27 02:28:23;;;;;;;8.80;2.85;;;;;;;20.85;33.62;101258.63;5034814;28;20498;-76
2021/04/27 02:30:50;;;;;;;10.10;3.25;;;;;;;20.82;33.69;101247.47;5034600;28;20108;-79
2021/04/27 02:33:16;;;;;;;7.55;3.05;;;;;;;20.89;33.58;101248.41;5033286;28;20033;-79
2021/04/27 02:35:43;;;;;;;7.30;3.70;;;;;;;20.89;33.62;101242.03;5034756;28;20447;-78
2021/04/27 02:38:11;;;;;;;7.85;3.38;;;;;;;20.90;33.40;101246.44;5034641;28;20431;-78
2021/04/27 02:40:37;;;;;;;14.10;3.42;;;;;;;20.87;33.69;101239.66;5034526;28;20026;-84
2021/04/27 02:43:04;;;;;;;12.90;3.80;;;;;;;20.96;33.57;101231.84;5034559;28;20029;-86
2021/04/27 02:45:33;;;;;;;10.02;3.40;;;;;;;20.98;33.57;101231.47;5033011;28;20025;-79
2021/04/27 02:48:05;;;;;;;6.70;2.72;;;;;;;20.91;33.75;101223.81;5034223;28;20483;-79
2021/04/27 02:50:30;;;;;;;7.43;3.80;;;;;;;20.86;33.90;101226.94;5034375;28;20369;-83
2021/04/27 02:52:56;;;;;;;10.23;3.30;;;;;;;20.82;33.90;101222.47;5033968;28;20041;-81
2021/04/27 02:55:21;;;;;;;7.22;2.55;;;;;;;20.88;33.67;101219.03;5033016;28;20021;-79
2021/04/27 02:57:47;;;;;;;8.55;3.03;;;;;;;20.89;33.62;101212.28;5033746;28;20107;-78
2021/04/27 03:00:13;;;;;;;6.28;2.97;;;;;;;20.87;33.86;101220.19;5033404;28;20033;-78
2021/04/27 03:02:39;;;;;;;9.98;2.85;;;;;;;20.98;33.49;101210.06;5034159;28;20468;-79
2021/04/27 03:05:05;;;;;;;8.48;3.10;;;;;;;20.99;33.63;101214.44;5034089;28;20083;-79
2021/04/27 03:07:30;;;;;;;9.50;3.25;;;;;;;20.94;33.64;101205.63;5032696;28;20120;-78
2021/04/27 03:09:56;;;;;;;6.05;2.78;;;;;;;20.88;33.94;101210.69;5034000;28;20061;-77
2021/04/27 03:12:22;;;;;;;6.70;2.90;;;;;;;20.80;33.88;101197.88;5033963;28;20040;-76
2021/04/27 03:14:47;;;;;;;8.32;3.60;;;;;;;20.74;34.04;101196.56;5033821;28;20045;-79
2021/04/27 03:17:13;;;;;;;6.68;2.58;;;;;;;20.74;33.91;101194.59;5033893;28;20025;-79
2021/04/27 03:19:39;;;;;;;5.88;2.60;;;;;;;20.79;33.86;101199.03;5033678;28;20124;-75
2021/04/27 03:22:04;;;;;;;8.75;3.47;;;;;;;20.81;33.84;101196.69;5033735;28;20384;-78
2021/04/27 03:24:30;;;;;;;7.57;3.22;;;;;;;20.85;33.77;101197.53;5033633;28;20029;-79
2021/04/27 03:26:55;;;;;;;6.57;2.35;;;;;;;20.90;33.62;101188.91;5033682;28;20488;-79
2021/04/27 03:29:21;;;;;;;7.68;2.67;;;;;;;20.94;33.64;101197.31;5033623;28;20057;-78
2021/04/27 03:31:47;;;;;;;8.52;2.58;;;;;;;20.90;33.67;101191.66;5033581;28;20503;-78
2021/04/27 03:34:12;;;;;;;7.47;2.35;;;;;;;20.77;33.85;101191.06;5033487;28;20037;-79
2021/04/27 03:36:38;;;;;;;14.63;4.25;;;;;;;20.80;33.85;101180.41;5033407;28;20033;-78
2021/04/27 03:39:06;;;;;;;7.13;2.25;;;;;;;20.86;33.70;101182.50;5033526;28;20029;-79
2021/04/27 03:41:32;;;;;;;7.82;2.65;;;;;;;20.73;33.81;101186.63;5033504;28;20026;-85
2021/04/27 03:43:58;;;;;;;7.20;2.70;;;;;;;20.68;33.96;101184.97;5033447;28;20033;-81
2021/04/27 03:46:23;;;;;;;9.18;3.40;;;;;;;20.59;33.97;101173.31;5033020;28;20464;-83
2021/04/27 03:48:49;;;;;;;6.55;3.13;;;;;;;20.48;34.35;101173.13;5033363;28;20029;-77
2021/04/27 03:51:14;;;;;;;8.35;2.90;;;;;;;20.49;34.11;101180.28;5032064;28;20053;-78
2021/04/27 03:53:40;;;;;;;9.68;2.45;;;;;;;20.64;33.82;101175.78;5033037;28;20030;-78
2021/04/27 03:56:05;;;;;;;8.48;2.85;;;;;;;20.61;33.99;101175.72;5033270;28;20037;-84
2021/04/27 03:58:31;;;;;;;8.25;2.33;;;;;;;20.74;33.66;101175.16;5033065;28;20096;-78
2021/04/27 04:00:57;;;;;;;6.88;3.10;;;;;;;20.74;33.86;101168.78;5033255;28;20100;-76
2021/04/27 04:03:23;;;;;;;7.13;2.42;;;;;;;20.65;33.73;101171.03;5033133;28;20064;-78
2021/04/27 04:05:49;;;;;;;5.55;2.15;;;;;;;20.65;33.66;101171.03;5032953;28;20048;-78
2021/04/27 04:08:15;;;;;;;8.00;2.17;;;;;;;20.62;33.82;101164.22;5033002;28;20032;-84
2021/04/27 04:10:40;;;;;;;7.65;2.75;;;;;;;20.33;34.23;101160.16;5032628;28;20468;-78
2021/04/27 04:13:06;;;;;;;5.25;2.30;;;;;;;20.49;34.10;101152.53;5031339;28;20438;-76
2021/04/27 04:15:32;;;;;;;10.40;2.92;;;;;;;20.38;34.27;101156.25;5031373;28;20091;-78
2021/04/27 04:17:57;;;;;;;7.90;2.80;;;;;;;20.30;34.43;101154.53;5032580;28;20476;-78
2021/04/27 04:20:25;;;;;;;9.50;3.45;;;;;;;20.34;34.47;101156.19;5031544;28;20060;-79
2021/04/27 04:22:51;;;;;;;9.52;3.20;;;;;;;20.35;34.50;101154.22;5031493;28;20032;-79
2021/04/27 04:25:18;;;;;;;13.32;3.85;;;;;;;20.36;34.24;101158.59;5031461;28;20025;-78
2021/04/27 04:27:44;;;;;;;10.10;3.38;;;;;;;20.36;34.47;101155.81;5032758;28;20052;-80
2021/04/27 04:30:24;;;;;;;6.72;2.42;;;;;;;20.22;34.72;101148.84;5032816;28;20032;-79
2021/04/27 04:32:53;;;;;;;17.85;4.05;;;;;;;20.19;34.76;101138.50;5032723;28;20388;-76
2021/04/27 04:35:21;;;;;;;12.20;2.55;;;;;;;20.04;35.01;101133.84;5032585;28;20071;-83
2021/04/27 04:37:47;;;;;;;7.20;2.67;;;;;;;19.70;35.74;101138.31;5032579;28;20026;-79
2021/04/27 04:40:14;;;;;;;7.97;2.90;;;;;;;19.88;35.50;101138.69;5032589;28;20021;-79
2021/04/27 04:42:40;;;;;;;8.00;3.20;;;;;;;19.98;35.05;101140.06;5031347;28;20527;-78
2021/04/27 04:45:08;;;;;;;10.02;2.80;;;;;;;20.14;34.80;101137.97;5031413;28;20125;-84
2021/04/27 04:47:34;;;;;;;7.43;2.78;;;;;;;20.03;35.08;101140.56;5031956;28;20510;-78
2021/04/27 04:50:00;;;;;;;13.57;4.13;;;;;;;20.12;34.86;101143.09;5032617;28;20061;-78
2021/04/27 04:52:26;;;;;;;12.23;3.13;;;;;;;20.15;34.94;101132.06;5032662;28;20514;-85
2021/04/27 04:54:51;;;;;;;6.90;2.30;;;;;;;20.00;35.21;101140.50;5032604;28;20496;-85
2021/04/27 04:57:17;;;;;;;8.98;2.92;;;;;;;20.03;35.08;101146.13;5032552;28;20040;-79
2021/04/27 04:59:43;;;;;;;12.05;3.33;;;;;;;19.99;35.36;101139.69;5032532;28;20025;-77
2021/04/27 05:02:08;;;;;;;5.55;2.45;;;;;;;20.01;35.13;101131.78;5031183;28;20379;-76
2021/04/27 05:04:34;;;;;;;10.68;2.58;;;;;;;20.04;34.99;101131.06;5032494;28;20065;-79
2021/04/27 05:07:05;;;;;;;7.03;2.58;;;;;;;19.87;35.54;101135.09;5031916;28;20462;-78
2021/04/27 05:09:31;;;;;;;7.63;2.80;;;;;;;20.04;35.33;101131.06;5031819;28;20452;-79
2021/04/27 05:11:58;;;;;;;11.65;2.88;;;;;;;20.10;34.94;101134.31;5032511;28;20080;-76
2021/04/27 05:14:24;;;;;;;13.75;3.72;;;;;;;20.13;35.13;101136.38;5032365;28;20486;-76
2021/04/27 05:16:50;;;;;;;11.52;2.70;;;;;;;20.14;34.95;101136.00;5032443;28;20030;-85
2021/04/27 05:19:17;;;;;;;7.97;2.33;;;;;;;20.06;35.29;101136.25;5032314;28;20100;-77
2021/04/27 05:21:43;;;;;;;11.52;3.20;;;;;;;20.18;35.02;101130.53;5032530;28;20025;-78
2021/04/27 05:24:09;;;;;;;14.88;3.58;;;;;;;20.25;34.78;101130.63;5034693;28;20032;-77
2021/04/27 05:26:35;;;;;;;10.73;2.90;;;;;;;20.25;34.90;101138.97;5035322;28;20380;-80
2021/04/27 05:29:01;;;;;;;5.82;2.33;;;;;;;20.32;34.54;101130.78;5034219;28;20084;-79
2021/04/27 05:31:26;;;;;;;6.38;2.15;;;;;;;20.20;34.81;101139.28;5035397;28;20029;-79
2021/04/27 05:33:52;;;;;;;11.35;2.65;;;;;;;19.94;35.37;101131.66;5035701;28;20369;-78
2021/04/27 05:36:17;;;;;;;10.35;3.25;;;;;;;20.14;35.17;101126.88;5028733;28;20107;-85
2021/04/27 05:38:43;;;;;;;11.50;2.83;;;;;;;20.11;35.07;101125.66;5021776;28;20029;-76
2021/04/27 05:41:09;;;;;;;9.20;2.67;;;;;;;20.13;35.22;101116.97;5017630;28;20044;-82
2021/04/27 05:43:34;;;;;;;7.78;2.05;;;;;;;20.04;35.35;101119.19;5017580;28;20025;-77
2021/04/27 05:46:00;;;;;;;15.45;3.97;;;;;;;20.20;34.86;101126.22;5016875;28;20040;-78
2021/04/27 05:48:26;;;;;;;8.60;3.08;;;;;;;20.12;35.26;101124.50;5016213;28;20101;-81
2021/04/27 05:50:51;;;;;;;13.10;3.05;;;;;;;20.12;35.28;101121.72;5016354;28;20116;-82
2021/04/27 05:53:17;;;;;;;10.85;2.83;;;;;;;20.01;35.51;101119.91;5014658;28;20068;-77
2021/04/27 05:55:42;;;;;;;13.13;3.33;;;;;;;19.84;35.83;101127.50;5020141;28;20048;-84
2021/04/27 05:58:09;;;;;;;9.02;2.33;;;;;;;20.02;35.34;101124.28;5022802;28;20473;-79
2021/04/27 06:00:36;;;;;;;7.47;1.67;;;;;;;19.96;35.58;101126.56;5018597;28;20195;-78
2021/04/27 06:03:01;;;;;;;11.40;2.83;;;;;;;20.13;35.21;101116.97;5019049;28;20083;-79
2021/04/27 06:05:27;;;;;;;16.55;2.83;;;;;;;20.16;35.15;101119.00;5017361;28;20072;-80
2021/04/27 06:07:53;;;;;;;7.07;1.85;;;;;;;20.26;35.07;101121.16;5014604;28;20029;-79
2021/04/27 06:10:18;;;;;;;10.05;2.22;;;;;;;20.26;34.97;101112.84;5014736;28;20033;-83
2021/04/27 06:12:44;;;;;;;9.18;2.38;;;;;;;20.27;35.12;101116.44;5014067;28;20041;-81
2021/04/27 06:15:10;;;;;;;22.80;5.15;;;;;;;20.22;35.24;101110.00;5015561;28;20037;-89
2021/04/27 06:17:37;;;;;;;12.52;3.33;;;;;;;20.33;35.24;101115.75;5015401;28;20951;-78
2021/04/27 06:20:07;;;;;;;13.48;3.30;;;;;;;20.40;35.16;101107.53;5016927;28;20022;-88
2021/04/27 06:22:33;;;;;;;11.98;2.33;;;;;;;20.41;35.01;101111.91;5028201;28;20029;-88
2021/04/27 06:24:59;;;;;;;12.38;3.00;;;;;;;20.37;35.27;101107.47;5026888;28;20120;-80
2021/04/27 06:27:28;;;;;;;6.70;2.03;;;;;;;20.52;34.99;101108.53;5024385;28;20031;-77
2021/04/27 06:29:54;;;;;;;10.00;3.03;;;;;;;20.58;34.97;101107.88;5023478;28;20085;-80
2021/04/27 06:32:20;;;;;;;24.42;5.05;;;;;;;20.60;34.88;101097.19;5023096;28;20057;-81
2021/04/27 06:34:46;;;;;;;16.92;2.85;;;;;;;20.57;35.19;101100.72;5023056;28;20061;-78
2021/04/27 06:37:11;;;;;;;12.40;3.35;;;;;;;20.60;35.17;101101.94;5023316;28;20029;-82
2021/04/27 06:39:38;;;;;;;14.45;4.20;;;;;;;20.42;35.62;101102.41;5013926;28;20041;-77
2021/04/27 06:42:05;;;;;;;6.47;2.35;;;;;;;20.64;35.40;101103.59;5014452;28;20029;-78
2021/04/27 06:44:31;;;;;;;14.63;3.85;;;;;;;20.60;35.41;101104.69;5015522;28;20021;-76
2021/04/27 06:46:56;;;;;;;14.68;3.20;;;;;;;20.77;35.28;101102.19;5017779;28;20057;-76
2021/04/27 06:49:22;;;;;;;11.77;3.53;;;;;;;20.68;35.46;101098.88;5017659;28;20022;-75
2021/04/27 06:51:48;;;;;;;12.35;2.67;;;;;;;20.76;35.40;101097.81;5032049;28;20040;-77
2021/04/27 06:54:13;;;;;;;25.50;7.93;;;;;;;20.77;35.53;101095.84;5034416;28;20493;-77
2021/04/27 06:56:40;;;;;;;20.50;3.65;;;;;;;20.95;35.34;101085.81;5034244;28;20033;-77
2021/04/27 06:59:07;;;;;;;17.17;3.22;;;;;;;20.90;35.67;101083.34;5019860;28;20120;-80
2021/04/27 07:01:32;;;;;;;13.43;2.97;;;;;;;21.11;35.41;101082.06;5023829;28;20026;-85
2021/04/27 07:03:58;;;;;;;12.65;3.55;;;;;;;21.09;35.30;101073.31;5024351;28;20028;-80
2021/04/27 07:06:24;;;;;;;26.50;6.03;;;;;;;21.01;35.56;101067.66;5017911;28;20132;-80
2021/04/27 07:08:49;;;;;;;13.93;2.45;;;;;;;21.21;35.21;101078.59;5016171;28;20041;-87
2021/04/27 07:11:15;;;;;;;14.90;3.10;;;;;;;21.23;35.35;101076.25;5017022;28;20104;-78
2021/04/27 07:13:40;;;;;;;26.02;3.50;;;;;;;21.13;35.45;101068.59;5017263;28;20034;-79
2021/04/27 07:16:06;;;;;;;7.18;2.15;;;;;;;21.37;35.10;101067.31;5016943;28;20072;-78
2021/04/27 07:18:31;;;;;;;5.38;2.63;;;;;;;21.38;35.06;101068.91;5017343;28;20020;-78
2021/04/27 07:20:57;;;;;;;8.68;2.55;;;;;;;21.38;35.30;101058.59;5017584;28;20498;-79
2021/04/27 07:23:23;;;;;;;15.15;2.55;;;;;;;21.41;35.28;101055.09;5016377;28;20678;-77
2021/04/27 07:25:48;;;;;;;4.75;2.03;;;;;;;21.27;35.37;101063.22;5029670;28;20030;-77
2021/04/27 07:28:14;;;;;;;10.70;1.85;;;;;;;21.50;34.84;101058.34;5033352;28;20087;-85
2021/04/27 07:30:40;;;;;;;15.70;2.72;;;;;;;21.51;34.94;101062.72;5033449;28;20029;-77
2021/04/27 07:33:06;;;;;;;6.05;2.42;;;;;;;21.54;34.81;101062.00;5033572;28;20034;-79
2021/04/27 07:35:33;;;;;;;8.10;2.55;;;;;;;21.65;34.75;101052.97;5015727;28;20029;-77
2021/04/27 07:38:01;;;;;;;10.23;3.15;;;;;;;21.75;34.69;101055.03;5013949;28;20072;-77
2021/04/27 07:40:32;;;;;;;15.40;3.53;;;;;;;21.87;34.56;101046.44;5013969;28;20033;-77
2021/04/27 07:42:57;;;;;;;35.15;4.30;;;;;;;21.85;34.61;101051.59;5013844;28;20037;-77
2021/04/27 07:45:30;;;;;;;21.58;3.88;;;;;;;21.94;34.50;101046.50;5012815;28;20022;-77
2021/04/27 07:47:56;;;;;;;30.02;5.53;;;;;;;21.81;34.49;101047.97;5012096;28;20463;-76
2021/04/27 07:50:22;;;;;;;14.00;4.28;;;;;;;21.59;34.43;101047.72;5014091;28;20064;-81
2021/04/27 07:52:48;;;;;;;12.20;2.88;;;;;;;21.57;34.38;101041.75;5014877;28;20040;-77
2021/04/27 07:55:13;;;;;;;5.05;2.15;;;;;;;21.79;34.12;101042.78;4998324;28;20484;-81
2021/04/27 07:57:39;;;;;;;16.58;3.53;;;;;;;21.99;33.81;101040.59;5014045;28;20472;-76
2021/04/27 08:00:07;;;;;;;16.95;3.47;;;;;;;21.83;34.10;101038.03;5012672;28;20045;-77
2021/04/27 08:02:33;;;;;;;7.18;2.25;;;;;;;21.87;34.15;101038.88;5013405;28;20033;-84
2021/04/27 08:04:58;;;;;;;8.32;1.95;;;;;;;21.49;34.89;101036.50;5013203;28;20025;-75
2021/04/27 08:07:24;;;;;;;7.15;1.70;;;;;;;21.75;34.35;101032.78;5013300;28;20033;-82
2021/04/27 08:09:49;;;;;;;7.70;1.98;;;;;;;22.01;33.86;101040.22;5013264;28;20042;-84
2021/04/27 08:12:15;;;;;;;16.67;3.00;;;;;;;22.31;33.23;101032.56;5013180;28;20040;-82
2021/04/27 08:14:40;;;;;;;22.85;3.45;;;;;;;21.81;33.99;101031.28;5013013;28;20116;-74
2021/04/27 08:17:07;;;;;;;5.68;1.55;;;;;;;22.14;33.38;101022.88;5013520;28;20030;-78
2021/04/27 08:19:32;;;;;;;6.60;1.70;;;;;;;22.11;33.41;101020.06;5013110;28;20113;-85
2021/04/27 08:21:58;;;;;;;20.25;3.95;;;;;;;22.63;32.54;101018.06;5014056;28;20022;-82
2021/04/27 08:24:24;;;;;;;12.10;2.47;;;;;;;22.67;32.77;101014.13;5015897;28;20048;-77
2021/04/27 08:26:49;;;;;;;11.02;2.50;;;;;;;22.43;33.09;101011.94;5014633;28;20995;-77
2021/04/27 08:29:15;;;;;;;8.40;2.20;;;;;;;22.58;32.61;101018.41;5015956;28;20080;-77
2021/04/27 08:31:41;;;;;;;9.95;2.05;;;;;;;22.64;32.45;101011.28;5015082;28;20024;-78
2021/04/27 08:34:06;;;;;;;5.97;2.00;;;;;;;22.72;32.23;101021.28;5014616;28;20036;-82
2021/04/27 08:36:32;;;;;;;9.00;2.10;;;;;;;22.38;32.81;101010.34;5015524;28;20053;-78
2021/04/27 08:38:58;;;;;;;8.05;5.70;;;;;;;22.58;32.54;101010.06;5015019;28;20033;-83
2021/04/27 08:41:25;;;;;;;6.72;2.67;;;;;;;22.78;32.23;101000.22;5017312;28;20029;-76
2021/04/27 08:43:51;;;;;;;14.35;2.95;;;;;;;22.87;31.81;101008.25;5029393;28;20033;-76
2021/04/27 08:46:17;;;;;;;16.50;3.45;;;;;;;22.81;31.95;101004.22;5028866;28;20037;-77
2021/04/27 08:48:43;;;;;;;5.30;1.95;;;;;;;22.84;31.58;100995.09;5030559;28;20044;-76
2021/04/27 08:51:14;;;;;;;3.92;2.05;;;;;;;22.65;31.63;100990.59;5030462;28;20494;-76
2021/04/27 08:53:40;;;;;;;15.10;2.63;;;;;;;23.03;30.74;101003.16;5030625;28;20045;-76
2021/04/27 08:56:07;;;;;;;7.78;2.65;;;;;;;23.18;30.50;101004.00;5031597;28;20033;-76
2021/04/27 08:58:33;;;;;;;8.70;2.25;;;;;;;23.27;30.44;100996.06;5034401;28;20025;-76
2021/04/27 09:00:59;;;;;;;4.97;1.33;;;;;;;22.98;30.58;101001.56;5035621;28;20096;-76
2021/04/27 09:03:24;;;;;;;5.03;1.75;;;;;;;23.05;30.06;100988.81;5036531;28;20034;-75
2021/04/27 09:05:50;;;;;;;7.35;1.80;;;;;;;23.56;29.34;100985.81;5036354;28;20035;-82
2021/04/27 09:08:32;;;;;;;4.22;1.23;;;;;;;23.61;29.65;100991.03;5036230;28;20028;-85
2021/04/27 09:10:58;;;;;;;5.63;1.48;;;;;;;23.25;29.92;100995.69;5036205;28;20033;-75
2021/04/27 09:13:25;;;;;;;3.20;1.40;;;;;;;23.23;29.42;100992.50;5036024;28;20033;-84
2021/04/27 09:15:52;;;;;;;5.18;1.50;;;;;;;23.59;29.15;100993.41;5034395;28;20079;-76
2021/04/27 09:18:31;;;;;;;3.92;1.50;;;;;;;23.44;29.13;101000.13;5036058;28;20687;-84
2021/04/27 09:21:01;;;;;;;6.15;1.13;;;;;;;23.71;28.92;100993.03;5034718;28;20021;-81
2021/04/27 09:23:29;;;;;;;5.35;1.83;;;;;;;23.68;28.86;100996.63;5035446;28;20491;-76
2021/04/27 09:26:16;;;;;;;4.35;0.88;;;;;;;23.77;28.65;100990.66;5035698;28;20029;-76
2021/04/27 09:28:51;;;;;;;7.78;1.33;;;;;;;23.42;28.90;100985.75;5035520;28;20021;-81
2021/04/27 09:31:29;;;;;;;7.45;1.52;;;;;;;23.51;28.87;100991.78;5035637;28;20017;-82
2021/04/27 09:34:21;;;;;;;4.75;1.35;;;;;;;23.08;29.26;100988.84;5035705;28;20086;-76
2021/04/27 09:36:56;;;;;;;5.82;1.10;;;;;;;23.39;28.62;100981.00;5050326;28;20026;-78
2021/04/27 09:39:51;;;;;;;5.63;1.10;;;;;;;23.70;28.11;100977.47;5035572;28;20064;-77
2021/04/27 09:42:20;;;;;;;3.10;1.20;;;;;;;23.23;29.41;100981.34;5035746;28;20021;-85
2021/04/27 09:44:51;;;;;;;3.67;1.30;;;;;;;23.18;30.54;100976.16;5034982;28;20025;-85
2021/04/27 09:47:16;;;;;;;4.65;1.33;;;;;;;23.64;29.77;100975.47;5034136;28;20037;-77
2021/04/27 09:49:51;;;;;;;4.30;1.42;;;;;;;23.89;29.18;100978.31;5035306;28;20426;-84
2021/04/27 09:52:17;;;;;;;11.85;1.55;;;;;;;24.04;28.57;100979.91;5050824;28;20056;-86
2021/04/27 09:54:59;;;;;;;2.85;0.77;;;;;;;23.74;27.39;100978.31;5035355;28;20476;-84
2021/04/27 09:57:29;;;;;;;7.93;1.52;;;;;;;24.37;27.05;100975.91;5031411;28;20369;-78
2021/04/27 09:59:55;;;;;;;2.70;0.80;;;;;;;24.18;27.00;100973.50;5019890;28;20099;-78
2021/04/27 10:02:22;;;;;;;3.72;1.05;;;;;;;23.98;27.41;100970.34;5025679;28;20100;-78
2021/04/27 10:04:51;;;;;;;7.75;1.90;;;;;;;24.28;27.32;100964.34;5035090;28;20045;-77
2021/04/27 10:07:18;;;;;;;10.85;1.73;;;;;;;24.38;27.48;100957.94;5034668;28;20063;-77
2021/04/27 10:09:46;;;;;;;8.00;2.03;;;;;;;24.62;27.13;100961.88;5034653;28;20036;-77
2021/04/27 10:12:13;;;;;;;20.50;3.10;;;;;;;24.65;27.33;100951.91;5034968;28;20028;-77
2021/04/27 10:14:40;;;;;;;5.72;1.35;;;;;;;24.66;27.44;100948.69;5034613;28;20048;-77
2021/04/27 10:17:06;;;;;;;10.52;2.13;;;;;;;25.06;26.88;100950.16;5034903;28;20487;-83
2021/04/27 10:19:33;;;;;;;3.72;1.35;;;;;;;24.82;26.80;100959.44;5033493;28;20025;-84
2021/04/27 10:21:58;;;;;;;5.38;1.30;;;;;;;25.07;26.54;100959.34;5034867;28;20063;-77
2021/04/27 10:24:26;;;;;;;6.13;1.67;;;;;;;24.87;26.60;100959.00;5033272;28;20060;-76
2021/04/27 10:26:52;;;;;;;8.27;1.20;;;;;;;24.70;26.70;100949.47;5034685;28;20392;-81
2021/04/27 10:29:24;;;;;;;4.80;1.08;;;;;;;24.95;26.57;100952.19;5034633;28;20116;-80
2021/04/27 10:32:15;;;;;;;2.72;1.10;;;;;;;24.21;27.09;100967.91;5033468;28;20029;-77
2021/04/27 10:34:56;;;;;;;8.10;2.05;;;;;;;24.45;26.82;100957.94;5033172;28;20037;-76
2021/04/27 10:37:22;;;;;;;8.30;1.58;;;;;;;24.41;26.96;100961.94;5034604;28;20028;-76
2021/04/27 10:39:49;;;;;;;2.65;0.90;;;;;;;24.04;27.26;100965.94;5033426;28;20029;-77
2021/04/27 10:42:22;;;;;;;5.22;1.20;;;;;;;24.12;26.94;100956.38;5033349;28;20467;-77
2021/04/27 10:45:00;;;;;;;2.67;1.20;;;;;;;24.00;26.65;100951.19;5033198;28;20514;-77
2021/04/27 10:47:27;;;;;;;3.05;1.00;;;;;;;24.27;26.34;100955.16;5033009;28;20084;-78
2021/04/27 10:49:56;;;;;;;5.30;1.08;;;;;;;24.45;26.15;100951.56;5033328;28;20092;-78
2021/04/27 10:52:29;;;;;;;5.60;1.48;;;;;;;24.42;26.59;100950.38;5033088;28;20101;-85
2021/04/27 10:55:22;;;;;;;4.95;1.65;;;;;;;24.61;26.84;100946.31;5034534;28;20032;-77
2021/04/27 10:57:48;;;;;;;1.80;0.82;;;;;;;24.46;26.64;100945.56;5034394;28;20029;-78
2021/04/27 11:00:43;;;;;;;4.32;1.33;;;;;;;24.41;26.72;100943.19;5034053;28;20396;-77
2021/04/27 11:03:16;;;;;;;2.35;1.13;;;;;;;24.48;26.53;100937.56;5020778;28;20041;-78
2021/04/27 11:05:58;;;;;;;4.65;0.88;;;;;;;24.18;27.43;100957.56;5016534;28;20052;-79
2021/04/27 11:08:43;;;;;;;5.85;1.80;;;;;;;22.73;30.15;100974.72;5017695;28;20026;-77
2021/04/27 11:11:22;;;;;;;3.05;0.80;;;;;;;22.82;30.10;100961.22;5017240;28;20029;-76
2021/04/27 11:13:49;;;;;;;10.63;1.92;;;;;;;23.08;30.08;100962.97;5017262;28;20156;-78
2021/04/27 11:16:29;;;;;;;3.85;1.35;;;;;;;23.20;30.69;100952.28;5017213;28;20419;-76
2021/04/27 11:19:20;;;;;;;20.58;2.92;;;;;;;23.22;31.91;100958.25;5016041;28;20506;-77
2021/04/27 11:21:48;;;;;;;4.00;1.40;;;;;;;23.42;31.74;100955.09;5015860;28;20468;-76
2021/04/27 11:24:43;;;;;;;4.18;1.00;;;;;;;23.48;32.41;100953.50;5016055;28;20036;-76
2021/04/27 11:27:25;;;;;;;5.55;1.30;;;;;;;23.89;31.71;100945.63;5004247;28;20048;-78